Time;durP1;ratioP1;P1;durP2;ratioP2;P2;SDS_P1;SDS_P2;PMS_P1;PMS_P2;Temp;Humidity;BMP_temperature;BMP_pressure;BME280_temperature;BME280_humidity;BME280_pressure;Samples;Min_cycle;Max_cycle;Signal;HPM_P1;HPM_P2
2023/06/06 16:43:50;;;;;;;56.65;6.82;;;;;;;;;;5097013;27;20397;-58
2023/06/06 16:46:16;;;;;;;48.08;6.65;;;;;;;;;;5069394;28;20086;-56
2023/06/06 16:48:41;;;;;;;77.63;9.07;;;;;;;;;;5045426;28;20575;-57
2023/06/06 16:51:06;;;;;;;61.10;6.43;;;;;;;;;;5046535;28;21458;-54
2023/06/06 16:53:32;;;;;;;59.03;6.53;;;;;;;;;;5050836;28;20282;-55
2023/06/06 16:55:58;;;;;;;59.85;6.28;;;;;;;;;;5055676;28;20029;-55
2023/06/06 16:58:23;;;;;;;53.92;5.82;;;;;;;;;;5061222;28;20021;-57
2023/06/06 17:00:48;;;;;;;50.63;5.93;;;;;;;;;;5058566;28;20950;-57
2023/06/06 17:03:14;;;;;;;50.63;5.67;;;;;;;;;;5060370;28;20119;-57
2023/06/06 17:05:39;;;;;;;97.93;9.30;;;;;;;;;;5057815;28;20049;-56
2023/06/06 17:08:04;;;;;;;53.50;5.65;;;;;;;;;;5061054;28;20044;-55
2023/06/06 17:10:30;;;;;;;55.33;5.90;;;;;;;;;;5060458;28;20414;-57
2023/06/06 17:12:56;;;;;;;60.22;6.18;;;;;;;;;;5059378;28;20266;-57
2023/06/06 17:15:21;;;;;;;59.05;6.15;;;;;;;;;;5058253;28;20024;-57
2023/06/06 17:17:46;;;;;;;97.73;9.93;;;;;;;;;;5061184;28;20449;-55
2023/06/06 17:20:12;;;;;;;57.13;6.10;;;;;;;;;;5060487;28;20271;-55
2023/06/06 17:22:37;;;;;;;94.53;9.23;;;;;;;;;;5055258;28;20340;-55
2023/06/06 17:25:03;;;;;;;58.22;5.95;;;;;;;;;;5059295;28;20027;-57
2023/06/06 17:27:29;;;;;;;66.75;6.80;;;;;;;;;;5057606;28;20032;-59
2023/06/06 17:29:54;;;;;;;55.72;5.88;;;;;;;;;;5059934;28;20017;-58
2023/06/06 17:32:19;;;;;;;62.55;6.60;;;;;;;;;;5058152;28;20627;-57
2023/06/06 17:34:45;;;;;;;108.25;10.07;;;;;;;;;;5059502;28;20021;-57
2023/06/06 17:37:10;;;;;;;63.58;6.22;;;;;;;;;;5060467;28;20043;-57
2023/06/06 17:39:35;;;;;;;89.68;8.57;;;;;;;;;;5059539;28;20455;-56
2023/06/06 17:42:00;;;;;;;63.43;6.33;;;;;;;;;;5059290;28;20381;-56
2023/06/06 17:44:26;;;;;;;61.95;5.88;;;;;;;;;;5061772;28;20482;-56
2023/06/06 17:46:51;;;;;;;61.63;6.47;;;;;;;;;;5060045;28;21466;-56
2023/06/06 17:49:17;;;;;;;55.17;5.65;;;;;;;;;;5058914;28;20024;-55
2023/06/06 17:51:43;;;;;;;98.60;9.43;;;;;;;;;;5056021;28;20061;-56
2023/06/06 17:54:09;;;;;;;63.70;6.25;;;;;;;;;;5051894;28;20822;-55
2023/06/06 17:56:34;;;;;;;61.22;6.13;;;;;;;;;;5043948;28;20033;-56
2023/06/06 17:59:00;;;;;;;57.28;5.85;;;;;;;;;;5050398;28;20021;-58
2023/06/06 18:01:25;;;;;;;56.30;5.75;;;;;;;;;;5044289;28;20261;-56
2023/06/06 18:03:51;;;;;;;104.45;9.45;;;;;;;;;;5045398;28;20033;-57
2023/06/06 18:06:19;;;;;;;70.00;6.88;;;;;;;;;;5045486;28;20159;-57
2023/06/06 18:08:44;;;;;;;115.60;10.18;;;;;;;;;;5045237;28;20112;-58
2023/06/06 18:11:10;;;;;;;68.78;6.85;;;;;;;;;;5045610;28;20087;-57
2023/06/06 18:13:35;;;;;;;72.87;6.80;;;;;;;;;;5044842;28;20103;-56
2023/06/06 18:16:00;;;;;;;69.47;6.93;;;;;;;;;;5046573;28;20419;-56
2023/06/06 18:18:26;;;;;;;73.28;6.97;;;;;;;;;;5046140;28;20127;-58
2023/06/06 18:20:51;;;;;;;111.93;9.93;;;;;;;;;;5044356;28;20063;-58
2023/06/06 18:23:18;;;;;;;76.78;7.20;;;;;;;;;;5045504;28;20425;-57
2023/06/06 18:25:43;;;;;;;138.35;12.10;;;;;;;;;;5043733;28;20561;-56
2023/06/06 18:28:09;;;;;;;70.50;6.85;;;;;;;;;;5043964;28;20027;-55
2023/06/06 18:30:34;;;;;;;79.50;7.60;;;;;;;;;;5044535;28;20053;-55
2023/06/06 18:33:00;;;;;;;63.38;6.35;;;;;;;;;;5042987;28;20263;-55
2023/06/06 18:35:25;;;;;;;77.57;7.30;;;;;;;;;;5046521;28;20047;-57
2023/06/06 18:37:55;;;;;;;104.75;8.98;;;;;;;;;;5045707;28;20101;-56
2023/06/06 18:40:21;;;;;;;62.67;6.15;;;;;;;;;;5047815;28;20035;-57
2023/06/06 18:42:48;;;;;;;91.55;8.00;;;;;;;;;;5046144;28;20033;-55
2023/06/06 18:45:13;;;;;;;69.65;6.70;;;;;;;;;;5045785;28;20110;-57
2023/06/06 18:47:39;;;;;;;96.30;8.93;;;;;;;;;;5042791;28;20028;-56
2023/06/06 18:50:05;;;;;;;74.75;7.28;;;;;;;;;;5045674;28;20020;-57
2023/06/06 18:52:30;;;;;;;69.80;6.60;;;;;;;;;;5044146;28;20040;-54
2023/06/06 18:54:56;;;;;;;66.10;6.60;;;;;;;;;;5043188;28;21285;-56
2023/06/06 18:57:22;;;;;;;94.68;8.25;;;;;;;;;;5043407;28;20036;-59
2023/06/06 18:59:48;;;;;;;134.18;10.65;;;;;;;;;;5045212;28;20036;-55
2023/06/06 19:02:13;;;;;;;77.45;7.10;;;;;;;;;;5049897;28;20036;-57
2023/06/06 19:04:39;;;;;;;94.97;8.05;;;;;;;;;;5053691;28;20023;-57
2023/06/06 19:07:04;;;;;;;73.22;6.85;;;;;;;;;;5053941;28;20866;-58
2023/06/06 19:09:29;;;;;;;74.03;6.72;;;;;;;;;;5056698;28;20016;-57
2023/06/06 19:11:55;;;;;;;173.55;13.23;;;;;;;;;;5053300;28;20044;-58
2023/06/06 19:14:20;;;;;;;60.40;5.93;;;;;;;;;;5055912;28;20024;-56
2023/06/06 19:16:45;;;;;;;128.82;10.68;;;;;;;;;;5048074;28;20044;-56
2023/06/06 19:19:11;;;;;;;71.67;6.80;;;;;;;;;;5055558;28;20023;-57
2023/06/06 19:21:37;;;;;;;93.60;7.85;;;;;;;;;;5049237;28;20788;-57
2023/06/06 19:24:02;;;;;;;72.75;6.63;;;;;;;;;;5048115;28;20020;-55
2023/06/06 19:26:27;;;;;;;83.13;7.18;;;;;;;;;;5053332;28;20041;-55
2023/06/06 19:28:53;;;;;;;134.45;11.27;;;;;;;;;;5053375;28;20111;-56
2023/06/06 19:31:18;;;;;;;70.87;6.77;;;;;;;;;;5053068;28;20478;-57
2023/06/06 19:33:43;;;;;;;115.00;9.35;;;;;;;;;;5050664;28;20262;-55
2023/06/06 19:36:08;;;;;;;72.77;6.67;;;;;;;;;;5052045;28;20029;-57
2023/06/06 19:38:34;;;;;;;82.40;7.03;;;;;;;;;;5055060;28;20275;-55
2023/06/06 19:40:59;;;;;;;86.60;7.10;;;;;;;;;;5050495;28;20090;-55
2023/06/06 19:43:24;;;;;;;96.90;7.95;;;;;;;;;;5052046;28;20282;-57
2023/06/06 19:45:49;;;;;;;131.95;11.13;;;;;;;;;;5052833;28;20032;-57
2023/06/06 19:48:15;;;;;;;62.92;6.03;;;;;;;;;;5055488;28;20027;-57
2023/06/06 19:50:41;;;;;;;89.97;7.60;;;;;;;;;;5052370;28;20281;-55
2023/06/06 19:53:06;;;;;;;74.03;6.90;;;;;;;;;;5051622;28;20028;-57
2023/06/06 19:55:31;;;;;;;93.32;7.93;;;;;;;;;;5051669;28;20036;-55
2023/06/06 19:57:57;;;;;;;104.03;8.73;;;;;;;;;;5052723;28;20515;-57
2023/06/06 20:00:24;;;;;;;77.80;7.05;;;;;;;;;;5051203;28;20532;-55
2023/06/06 20:02:49;;;;;;;125.93;9.88;;;;;;;;;;5049185;28;20028;-55
2023/06/06 20:05:14;;;;;;;69.30;6.45;;;;;;;;;;5049710;28;20027;-57
2023/06/06 20:07:40;;;;;;;84.10;7.28;;;;;;;;;;5052759;28;20043;-58
2023/06/06 20:10:07;;;;;;;92.40;7.75;;;;;;;;;;5041133;28;20020;-57
2023/06/06 20:12:32;;;;;;;80.35;7.05;;;;;;;;;;5053522;28;20052;-57
2023/06/06 20:14:57;;;;;;;131.63;10.82;;;;;;;;;;5051865;28;20035;-56
2023/06/06 20:17:22;;;;;;;85.37;7.83;;;;;;;;;;5053439;28;20033;-56
2023/06/06 20:19:48;;;;;;;153.40;11.90;;;;;;;;;;5053322;28;20263;-57
2023/06/06 20:22:14;;;;;;;90.13;7.70;;;;;;;;;;5053270;28;20143;-57
2023/06/06 20:24:40;;;;;;;88.75;7.80;;;;;;;;;;5053820;28;20027;-56
2023/06/06 20:27:15;;;;;;;77.63;6.88;;;;;;;;;;5052402;28;20029;-57
2023/06/06 20:29:41;;;;;;;55.90;5.82;;;;;;;;;;5046119;28;20116;-57
2023/06/06 20:32:06;;;;;;;57.83;6.20;;;;;;;;;;5052052;28;20710;-55
2023/06/06 20:34:32;;;;;;;62.63;6.32;;;;;;;;;;5053333;28;20029;-57
2023/06/06 20:36:58;;;;;;;107.95;9.73;;;;;;;;;;5048346;28;20045;-56
2023/06/06 20:39:34;;;;;;;61.70;6.57;;;;;;;;;;5051109;28;20017;-57
2023/06/06 20:41:59;;;;;;;184.50;14.20;;;;;;;;;;5044262;28;20040;-57
2023/06/06 20:44:25;;;;;;;91.30;7.95;;;;;;;;;;5050560;28;20074;-55
2023/06/06 20:46:50;;;;;;;125.22;10.57;;;;;;;;;;5048862;28;20032;-55
2023/06/06 20:49:16;;;;;;;76.85;7.32;;;;;;;;;;5056068;28;20757;-56
2023/06/06 20:51:41;;;;;;;101.87;8.90;;;;;;;;;;5049059;28;20043;-54
2023/06/06 20:54:06;;;;;;;79.93;7.93;;;;;;;;;;5052496;28;20298;-55
2023/06/06 20:56:31;;;;;;;91.95;8.20;;;;;;;;;;5051823;28;21009;-57
2023/06/06 20:58:58;;;;;;;146.98;11.32;;;;;;;;;;5054124;28;20085;-59
2023/06/06 21:01:23;;;;;;;69.05;6.93;;;;;;;;;;5049006;28;20025;-55
2023/06/06 21:03:49;;;;;;;122.37;10.40;;;;;;;;;;5045933;28;20020;-54
2023/06/06 21:06:14;;;;;;;79.55;7.38;;;;;;;;;;5047443;28;20270;-57
2023/06/06 21:08:40;;;;;;;66.88;6.82;;;;;;;;;;5051054;28;20127;-57
2023/06/06 21:11:06;;;;;;;112.38;9.43;;;;;;;;;;5055279;28;20850;-55
2023/06/06 21:13:33;;;;;;;62.67;6.28;;;;;;;;;;5051786;28;20024;-56
2023/06/06 21:16:00;;;;;;;138.43;11.90;;;;;;;;;;5047968;28;20032;-57
2023/06/06 21:18:26;;;;;;;90.97;9.13;;;;;;;;;;5069231;28;20020;-56
